首页
METAR-TAF:

METAR-TAF

机场 :

贝灵厄姆, 华盛顿, 美国

纬度: 48-47-58N, 经度: 122-32-21W, 海拔: 48米

当前天气观测

该预报发布于32分钟前的21:53 UTC
风速8节,风向,有时为15节阵风
温度 19°C
湿度 56%
气压 1012 hPa
能見度: 16.1公里
散云层高于6500英尺

METAR: KBLI 222153Z 18008G15KT 10SM SCT065 19/10 A2988 RMK AO2 SLP124 T01940100

时间: 15:25 (22:25 UTC)

预报

该预报发布于4小时和57分钟前的17:28 UTC
预报有效从22日的 18点(UTC)到 23日的 18点(UTC)
风速10节,风向,有时为18节阵风
能見度: 10公里
散云层高于12000英尺
从 23日的 0030点(UTC)
风速10节,风向
能見度: 10公里
散云层高于3500英尺
阴天层高于7000英尺
从 23日的 0900点(UTC)
风速12节,风向南转西南
能見度: 10公里
多云层高于2500英尺
阴天层高于3500英尺
从 23日的 1200点(UTC)
风速12节,风向,有时为20节阵风
能見度: 10公里
阴天层高于2500英尺

TAF: KBLI 221728Z 2218/2318 18010G18KT P6SM SCT120 FM230030 18010KT P6SM SCT035 OVC070 FM230900 20012KT P6SM BKN025 OVC035 FM231200 18012G20KT P6SM OVC025

超过4000个机场的气象观测和天气预报(METAR&TAF报告)。

可查询的气象台以黄色和红色小点在地图上表示。

将鼠标移到小点上方,可查看气象台名称。

然后点击查看天气观测和预报。

如需切换地图:点击带黑十字的绿色按钮放大地图;点击带横线的绿色按钮缩小地图;或者点击绿色箭头查看邻近地区的地图。


METAR-TAF: